PWSweather.com
Personal Weather Stations
Station Observations
EDDERTON
Rossshire, EddertonGB IV191LA

RossshireEddertonGB IV191LA

Lat: 57.838, Lon: -4.176

Elevation: 60

Station Type: Davis Vantage PRO2 Wireless With Solar Sensor

http://www.ardmore-lodge.com

Latest ConditionsUpdated 5:30:05 AM GMT Wednesday, Jul 23, 2014
Currently Today's Max Today's Min Today's Average
Temperature 57.1°F13.9°C 58.6°F14.8°C 55.2°F12.9°C 57.1°F13.9°C
Dew Point 56.5°F13.6°C 58.0°F14.4°C 54.1°F12.3°C 56.4°F13.6°C
Winds 5.5 mph NE8.9 kmh NE 5.5 mph NE8.9 kmh NE - 2.1 mph 3.4 kmh
Wind Gusts 7.0 mph11.3 kmh 7.0 mph11.3 kmh - -
Humidity 98% 98% 96% 97%
Pressure 30.28 in1025.4 mb 30.30 in1026.1 mb 30.28 in1025.4 mb -
Hour Temp Dew Point Humidity Winds Wind Gusts Pressure Precip Precip Rate Daily Precip Total
05:30 AM 57.1°F13.9°C 56.5°F13.6°C 98% 5.5 mph NE8.9 kmh NE 7.0 mph11.3 kmh 30.28 in1025.4 mb 0.00 in0.0 mm 0.00 in/hr0.0 mm/hr 0.00 in0.0 mm
05:15 AM 57.0°F13.9°C 56.4°F13.6°C 98% 3.9 mph NE6.3 kmh NE 6.0 mph9.7 kmh 30.28 in1025.4 mb 0.00 in0.0 mm 0.00 in/hr0.0 mm/hr 0.00 in0.0 mm
05:00 AM 57.0°F13.9°C 56.4°F13.6°C 98% 2.5 mph NE4.0 kmh NE 4.0 mph6.4 kmh 30.28 in1025.4 mb 0.00 in0.0 mm 0.00 in/hr0.0 mm/hr 0.00 in0.0 mm
04:45 AM 57.0°F13.9°C 56.4°F13.6°C 98% 3.4 mph NE5.5 kmh NE 7.0 mph11.3 kmh 30.28 in1025.4 mb 0.00 in0.0 mm 0.00 in/hr0.0 mm/hr 0.00 in0.0 mm
04:30 AM 57.0°F13.9°C 56.4°F13.6°C 98% 2.8 mph NE4.5 kmh NE 5.0 mph8.0 kmh 30.28 in1025.4 mb 0.00 in0.0 mm 0.00 in/hr0.0 mm/hr 0.00 in0.0 mm
04:15 AM 57.0°F13.9°C 56.4°F13.6°C 98% 2.6 mph NE4.2 kmh NE 4.0 mph6.4 kmh 30.29 in1025.7 mb 0.00 in0.0 mm 0.00 in/hr0.0 mm/hr 0.00 in0.0 mm
04:00 AM 57.0°F13.9°C 56.4°F13.6°C 98% 0.9 mph NE1.4 kmh NE 3.0 mph4.8 kmh 30.29 in1025.7 mb 0.00 in0.0 mm 0.00 in/hr0.0 mm/hr 0.00 in0.0 mm
03:45 AM 57.0°F13.9°C 56.4°F13.6°C 98% 1.9 mph NE3.1 kmh NE 4.0 mph6.4 kmh 30.29 in1025.7 mb 0.00 in0.0 mm 0.00 in/hr0.0 mm/hr 0.00 in0.0 mm
03:30 AM 57.0°F13.9°C 56.4°F13.6°C 98% 3.0 mph NE4.8 kmh NE 5.0 mph8.0 kmh 30.29 in1025.7 mb 0.00 in0.0 mm 0.00 in/hr0.0 mm/hr 0.00 in0.0 mm
03:15 AM 56.9°F13.8°C 56.1°F13.4°C 97% 1.8 mph NE2.9 kmh NE 5.0 mph8.0 kmh 30.28 in1025.4 mb 0.00 in0.0 mm 0.00 in/hr0.0 mm/hr 0.00 in0.0 mm
03:00 AM 57.0°F13.9°C 56.2°F13.4°C 97% 1.6 mph NE2.6 kmh NE 5.0 mph8.0 kmh 30.28 in1025.4 mb 0.00 in0.0 mm 0.00 in/hr0.0 mm/hr 0.00 in0.0 mm
02:45 AM 57.0°F13.9°C 56.2°F13.4°C 97% 2.8 mph NE4.5 kmh NE 4.0 mph6.4 kmh 30.29 in1025.7 mb 0.00 in0.0 mm 0.00 in/hr0.0 mm/hr 0.00 in0.0 mm
02:30 AM 57.2°F14.0°C 56.6°F13.7°C 98% 1.6 mph NE2.6 kmh NE 2.0 mph3.2 kmh 30.29 in1025.7 mb 0.00 in0.0 mm 0.00 in/hr0.0 mm/hr 0.00 in0.0 mm
02:15 AM 57.4°F14.1°C 56.5°F13.6°C 97% 2.6 mph NE4.2 kmh NE 4.0 mph6.4 kmh 30.29 in1025.7 mb 0.00 in0.0 mm 0.00 in/hr0.0 mm/hr 0.00 in0.0 mm
02:00 AM 57.4°F14.1°C 56.6°F13.7°C 97% 2.7 mph NE4.3 kmh NE 6.0 mph9.7 kmh 30.29 in1025.7 mb 0.00 in0.0 mm 0.00 in/hr0.0 mm/hr 0.00 in0.0 mm
01:45 AM 57.7°F14.3°C 56.9°F13.8°C 97% 1.2 mph NE1.9 kmh NE 2.0 mph3.2 kmh 30.30 in1026.1 mb 0.00 in0.0 mm 0.00 in/hr0.0 mm/hr 0.00 in0.0 mm
01:30 AM 58.0°F14.4°C 57.2°F14.0°C 97% 3.5 mph NE5.6 kmh NE 4.0 mph6.4 kmh 30.29 in1025.7 mb 0.00 in0.0 mm 0.00 in/hr0.0 mm/hr 0.00 in0.0 mm
01:15 AM 58.5°F14.7°C 57.7°F14.3°C 97% 1.7 mph SE2.7 kmh SE 3.0 mph4.8 kmh 30.29 in1025.7 mb 0.00 in0.0 mm 0.00 in/hr0.0 mm/hr 0.00 in0.0 mm
01:00 AM 58.6°F14.8°C 58.0°F14.4°C 98% 0.6 mph SE1.0 kmh SE 3.0 mph4.8 kmh 30.29 in1025.7 mb 0.00 in0.0 mm 0.00 in/hr0.0 mm/hr 0.00 in0.0 mm
12:45 AM 57.9°F14.4°C 57.4°F14.1°C 98% 0.1 mph SE0.2 kmh SE 3.0 mph4.8 kmh 30.29 in1025.7 mb 0.00 in0.0 mm 0.00 in/hr0.0 mm/hr 0.00 in0.0 mm
12:30 AM 56.3°F13.5°C 55.5°F13.1°C 97% Calm Calm -- 30.29 in1025.7 mb 0.00 in0.0 mm 0.00 in/hr0.0 mm/hr 0.00 in0.0 mm
12:15 AM 55.5°F13.1°C 54.7°F12.6°C 97% Calm Calm -- 30.29 in1025.7 mb 0.00 in0.0 mm 0.00 in/hr0.0 mm/hr 0.00 in0.0 mm
12:00 AM 55.2°F12.9°C 54.1°F12.3°C 96% 1.4 mph SE2.3 kmh SE 2.0 mph3.2 kmh 30.29 in1025.7 mb 0.00 in0.0 mm 0.00 in/hr0.0 mm/hr 0.00 in0.0 mm